Oakvale, West Virginia
Current Conditions -  °F | °C
As of 10:52 PM on Saturday 22 Nov 2014 (Local Time) from KBLF Reporting Station
Clear Clear  
Wind Chill: 42°   Ceiling: Unl
Heat Index: 44°   Visibility: 10mi
Dew Point: 15°   Wind: 5mph
Humidity: 31%   Direction: 150°SSE
Pressure: 30.21"   Gusts: NA
Location:  37.33°N, 80.96°W
Report Text: KBLF 230352Z AUTO 15004KT 10SM CLR 07/M09 A3021 RMK AO2 SLP227 T00671094
Loading
Personal Weather Stations






























Interactive Weather Map New forecast layout! Learn more

10-Day Weather Forecast

Advertisements
Track Severe Weather on mobile